sensor_id;sensor_type;location;lat;lon;timestamp;temperature;humidity
46732;DHT22;32477;51.474;5.696;2023-12-20T00:00:20;6.90;99.90
46732;DHT22;32477;51.474;5.696;2023-12-20T00:02:46;6.80;99.90
46732;DHT22;32477;51.474;5.696;2023-12-20T00:05:13;6.70;99.90
46732;DHT22;32477;51.474;5.696;2023-12-20T00:07:39;6.70;99.90
46732;DHT22;32477;51.474;5.696;2023-12-20T00:10:05;6.70;99.90
46732;DHT22;32477;51.474;5.696;2023-12-20T00:12:31;6.70;99.90
46732;DHT22;32477;51.474;5.696;2023-12-20T00:14:56;6.60;99.90
46732;DHT22;32477;51.474;5.696;2023-12-20T00:17:22;6.50;99.90
46732;DHT22;32477;51.474;5.696;2023-12-20T00:19:47;6.50;99.90
46732;DHT22;32477;51.474;5.696;2023-12-20T00:22:13;6.40;99.90
46732;DHT22;32477;51.474;5.696;2023-12-20T00:24:39;6.40;99.90
46732;DHT22;32477;51.474;5.696;2023-12-20T00:27:04;6.30;99.90
46732;DHT22;32477;51.474;5.696;2023-12-20T00:29:30;6.20;99.90
46732;DHT22;32477;51.474;5.696;2023-12-20T00:31:56;6.10;99.90
46732;DHT22;32477;51.474;5.696;2023-12-20T00:34:21;6.00;99.90
46732;DHT22;32477;51.474;5.696;2023-12-20T00:36:47;5.90;99.90
46732;DHT22;32477;51.474;5.696;2023-12-20T00:39:12;5.90;99.90
46732;DHT22;32477;51.474;5.696;2023-12-20T00:41:38;5.90;99.90
46732;DHT22;32477;51.474;5.696;2023-12-20T00:44:04;6.00;99.90
46732;DHT22;32477;51.474;5.696;2023-12-20T00:46:29;5.90;99.90
46732;DHT22;32477;51.474;5.696;2023-12-20T00:48:55;5.90;99.90
46732;DHT22;32477;51.474;5.696;2023-12-20T00:51:21;5.90;99.90
46732;DHT22;32477;51.474;5.696;2023-12-20T00:53:49;5.80;99.90
46732;DHT22;32477;51.474;5.696;2023-12-20T00:56:15;5.80;99.90
46732;DHT22;32477;51.474;5.696;2023-12-20T00:58:41;5.70;99.90
46732;DHT22;32477;51.474;5.696;2023-12-20T01:01:06;5.60;99.90
46732;DHT22;32477;51.474;5.696;2023-12-20T01:03:32;5.60;99.90
46732;DHT22;32477;51.474;5.696;2023-12-20T01:05:58;5.60;99.90
46732;DHT22;32477;51.474;5.696;2023-12-20T01:08:23;5.50;99.90
46732;DHT22;32477;51.474;5.696;2023-12-20T01:10:49;5.50;99.90
46732;DHT22;32477;51.474;5.696;2023-12-20T01:13:14;5.50;99.90
46732;DHT22;32477;51.474;5.696;2023-12-20T01:15:40;5.50;99.90
46732;DHT22;32477;51.474;5.696;2023-12-20T01:18:06;5.40;99.90
46732;DHT22;32477;51.474;5.696;2023-12-20T01:20:32;5.30;99.90
46732;DHT22;32477;51.474;5.696;2023-12-20T01:22:57;5.50;99.90
46732;DHT22;32477;51.474;5.696;2023-12-20T01:25:23;5.40;99.90
46732;DHT22;32477;51.474;5.696;2023-12-20T01:27:49;5.40;99.90
46732;DHT22;32477;51.474;5.696;2023-12-20T01:30:15;5.40;99.90
46732;DHT22;32477;51.474;5.696;2023-12-20T01:32:40;5.30;99.90
46732;DHT22;32477;51.474;5.696;2023-12-20T01:35:06;5.30;99.90
46732;DHT22;32477;51.474;5.696;2023-12-20T01:37:32;5.30;99.90
46732;DHT22;32477;51.474;5.696;2023-12-20T01:39:57;5.30;99.90
46732;DHT22;32477;51.474;5.696;2023-12-20T01:42:24;5.30;99.90
46732;DHT22;32477;51.474;5.696;2023-12-20T01:44:49;5.30;99.90
46732;DHT22;32477;51.474;5.696;2023-12-20T01:47:15;5.40;99.90
46732;DHT22;32477;51.474;5.696;2023-12-20T01:49:41;5.40;99.90
46732;DHT22;32477;51.474;5.696;2023-12-20T01:52:08;5.40;99.90
46732;DHT22;32477;51.474;5.696;2023-12-20T01:54:34;5.40;99.90
46732;DHT22;32477;51.474;5.696;2023-12-20T01:57:00;5.50;99.90
46732;DHT22;32477;51.474;5.696;2023-12-20T01:59:26;5.50;99.90
46732;DHT22;32477;51.474;5.696;2023-12-20T02:01:53;5.60;99.90
46732;DHT22;32477;51.474;5.696;2023-12-20T02:04:19;5.70;99.90
46732;DHT22;32477;51.474;5.696;2023-12-20T02:06:46;5.70;99.90
46732;DHT22;32477;51.474;5.696;2023-12-20T02:09:12;5.70;99.90
46732;DHT22;32477;51.474;5.696;2023-12-20T02:11:38;5.70;99.90
46732;DHT22;32477;51.474;5.696;2023-12-20T02:14:03;5.60;99.90
46732;DHT22;32477;51.474;5.696;2023-12-20T02:16:29;5.50;99.90
46732;DHT22;32477;51.474;5.696;2023-12-20T02:18:54;5.40;99.90
46732;DHT22;32477;51.474;5.696;2023-12-20T02:21:25;5.40;99.90
46732;DHT22;32477;51.474;5.696;2023-12-20T02:23:51;5.40;99.90
46732;DHT22;32477;51.474;5.696;2023-12-20T02:26:16;5.30;99.90
46732;DHT22;32477;51.474;5.696;2023-12-20T02:28:42;5.30;99.90
46732;DHT22;32477;51.474;5.696;2023-12-20T02:31:07;5.40;99.90
46732;DHT22;32477;51.474;5.696;2023-12-20T02:33:33;5.40;99.90
46732;DHT22;32477;51.474;5.696;2023-12-20T02:35:59;5.40;99.90
46732;DHT22;32477;51.474;5.696;2023-12-20T02:38:24;5.30;99.90
46732;DHT22;32477;51.474;5.696;2023-12-20T02:40:50;5.40;99.90
46732;DHT22;32477;51.474;5.696;2023-12-20T02:43:16;5.50;99.90
46732;DHT22;32477;51.474;5.696;2023-12-20T02:45:41;5.50;99.90
46732;DHT22;32477;51.474;5.696;2023-12-20T02:48:07;5.50;99.90
46732;DHT22;32477;51.474;5.696;2023-12-20T02:50:32;5.40;99.90
46732;DHT22;32477;51.474;5.696;2023-12-20T02:52:58;5.40;99.90
46732;DHT22;32477;51.474;5.696;2023-12-20T02:55:24;5.50;99.90
46732;DHT22;32477;51.474;5.696;2023-12-20T02:57:49;5.40;99.90
46732;DHT22;32477;51.474;5.696;2023-12-20T03:00:15;5.40;99.90
46732;DHT22;32477;51.474;5.696;2023-12-20T03:02:40;5.40;99.90
46732;DHT22;32477;51.474;5.696;2023-12-20T03:05:06;5.40;99.90
46732;DHT22;32477;51.474;5.696;2023-12-20T03:07:32;5.40;99.90
46732;DHT22;32477;51.474;5.696;2023-12-20T03:09:57;5.40;99.90
46732;DHT22;32477;51.474;5.696;2023-12-20T03:12:23;5.50;99.90
46732;DHT22;32477;51.474;5.696;2023-12-20T03:14:49;5.60;99.90
46732;DHT22;32477;51.474;5.696;2023-12-20T03:17:15;5.60;99.90
46732;DHT22;32477;51.474;5.696;2023-12-20T03:19:40;5.60;99.90
46732;DHT22;32477;51.474;5.696;2023-12-20T03:22:06;5.60;99.90
46732;DHT22;32477;51.474;5.696;2023-12-20T03:24:32;5.60;99.90
46732;DHT22;32477;51.474;5.696;2023-12-20T03:26:57;5.70;99.90
46732;DHT22;32477;51.474;5.696;2023-12-20T03:29:23;5.70;99.90
46732;DHT22;32477;51.474;5.696;2023-12-20T03:31:49;5.70;99.90
46732;DHT22;32477;51.474;5.696;2023-12-20T03:34:14;5.60;99.90
46732;DHT22;32477;51.474;5.696;2023-12-20T03:36:40;5.60;99.90
46732;DHT22;32477;51.474;5.696;2023-12-20T03:39:05;5.60;99.90
46732;DHT22;32477;51.474;5.696;2023-12-20T03:41:31;5.60;99.90
46732;DHT22;32477;51.474;5.696;2023-12-20T03:43:57;5.60;99.90
46732;DHT22;32477;51.474;5.696;2023-12-20T03:46:22;5.50;99.90
46732;DHT22;32477;51.474;5.696;2023-12-20T03:48:48;5.50;99.90
46732;DHT22;32477;51.474;5.696;2023-12-20T03:51:13;5.50;99.90
46732;DHT22;32477;51.474;5.696;2023-12-20T03:53:39;5.40;99.90
46732;DHT22;32477;51.474;5.696;2023-12-20T03:56:06;5.30;99.90
46732;DHT22;32477;51.474;5.696;2023-12-20T03:58:31;5.30;99.90
46732;DHT22;32477;51.474;5.696;2023-12-20T04:00:57;5.50;99.90
46732;DHT22;32477;51.474;5.696;2023-12-20T04:03:23;5.60;99.90
46732;DHT22;32477;51.474;5.696;2023-12-20T04:05:48;5.60;99.90
46732;DHT22;32477;51.474;5.696;2023-12-20T04:08:14;5.70;99.90
46732;DHT22;32477;51.474;5.696;2023-12-20T04:10:39;5.70;99.90
46732;DHT22;32477;51.474;5.696;2023-12-20T04:13:05;5.70;99.90
46732;DHT22;32477;51.474;5.696;2023-12-20T04:15:30;5.80;99.90
46732;DHT22;32477;51.474;5.696;2023-12-20T04:17:56;5.80;99.90
46732;DHT22;32477;51.474;5.696;2023-12-20T04:20:22;5.80;99.90
46732;DHT22;32477;51.474;5.696;2023-12-20T04:22:47;5.80;99.90
46732;DHT22;32477;51.474;5.696;2023-12-20T04:25:13;5.90;99.90
46732;DHT22;32477;51.474;5.696;2023-12-20T04:27:38;5.90;99.90
46732;DHT22;32477;51.474;5.696;2023-12-20T04:30:04;5.90;99.90
46732;DHT22;32477;51.474;5.696;2023-12-20T04:32:30;6.00;99.90
46732;DHT22;32477;51.474;5.696;2023-12-20T04:34:57;6.00;99.90
46732;DHT22;32477;51.474;5.696;2023-12-20T04:37:22;6.10;99.90
46732;DHT22;32477;51.474;5.696;2023-12-20T04:39:48;6.10;99.90
46732;DHT22;32477;51.474;5.696;2023-12-20T04:42:13;6.10;99.90
46732;DHT22;32477;51.474;5.696;2023-12-20T04:44:39;6.10;99.90
46732;DHT22;32477;51.474;5.696;2023-12-20T04:47:05;6.20;99.90
46732;DHT22;32477;51.474;5.696;2023-12-20T04:49:30;6.20;99.90
46732;DHT22;32477;51.474;5.696;2023-12-20T04:51:56;6.30;99.90
46732;DHT22;32477;51.474;5.696;2023-12-20T04:54:22;6.30;99.90
46732;DHT22;32477;51.474;5.696;2023-12-20T04:56:47;6.30;99.90
46732;DHT22;32477;51.474;5.696;2023-12-20T04:59:13;6.30;99.90
46732;DHT22;32477;51.474;5.696;2023-12-20T05:01:39;6.30;99.90
46732;DHT22;32477;51.474;5.696;2023-12-20T05:04:04;6.30;99.90
46732;DHT22;32477;51.474;5.696;2023-12-20T05:06:30;6.40;99.90
46732;DHT22;32477;51.474;5.696;2023-12-20T05:08:55;6.30;99.90
46732;DHT22;32477;51.474;5.696;2023-12-20T05:11:21;6.40;99.90
46732;DHT22;32477;51.474;5.696;2023-12-20T05:13:47;6.30;99.90
46732;DHT22;32477;51.474;5.696;2023-12-20T05:16:13;6.30;99.90
46732;DHT22;32477;51.474;5.696;2023-12-20T05:18:40;6.40;99.90
46732;DHT22;32477;51.474;5.696;2023-12-20T05:21:05;6.40;99.90
46732;DHT22;32477;51.474;5.696;2023-12-20T05:23:31;6.40;99.90
46732;DHT22;32477;51.474;5.696;2023-12-20T05:25:57;6.40;99.90
46732;DHT22;32477;51.474;5.696;2023-12-20T05:28:22;6.40;99.90
46732;DHT22;32477;51.474;5.696;2023-12-20T05:30:48;6.40;99.90
46732;DHT22;32477;51.474;5.696;2023-12-20T05:33:14;6.50;99.90
46732;DHT22;32477;51.474;5.696;2023-12-20T05:35:39;6.50;99.90
46732;DHT22;32477;51.474;5.696;2023-12-20T05:38:05;6.50;99.90
46732;DHT22;32477;51.474;5.696;2023-12-20T05:40:30;6.50;99.90
46732;DHT22;32477;51.474;5.696;2023-12-20T05:42:56;6.50;99.90
46732;DHT22;32477;51.474;5.696;2023-12-20T05:45:21;6.50;99.90
46732;DHT22;32477;51.474;5.696;2023-12-20T05:47:47;6.50;99.90
46732;DHT22;32477;51.474;5.696;2023-12-20T05:50:13;6.60;99.90
46732;DHT22;32477;51.474;5.696;2023-12-20T05:52:38;6.60;99.90
46732;DHT22;32477;51.474;5.696;2023-12-20T05:55:04;6.50;99.90
46732;DHT22;32477;51.474;5.696;2023-12-20T05:57:29;6.50;99.90
46732;DHT22;32477;51.474;5.696;2023-12-20T05:59:55;6.50;99.90
46732;DHT22;32477;51.474;5.696;2023-12-20T06:02:21;6.60;99.90
46732;DHT22;32477;51.474;5.696;2023-12-20T06:04:46;6.60;99.90
46732;DHT22;32477;51.474;5.696;2023-12-20T06:07:12;6.60;99.90
46732;DHT22;32477;51.474;5.696;2023-12-20T06:09:38;6.60;99.90
46732;DHT22;32477;51.474;5.696;2023-12-20T06:12:04;6.70;99.90
46732;DHT22;32477;51.474;5.696;2023-12-20T06:14:30;6.70;99.90
46732;DHT22;32477;51.474;5.696;2023-12-20T06:16:56;6.70;99.90
46732;DHT22;32477;51.474;5.696;2023-12-20T06:19:22;6.70;99.90
46732;DHT22;32477;51.474;5.696;2023-12-20T06:21:48;6.70;99.90
46732;DHT22;32477;51.474;5.696;2023-12-20T06:24:14;6.70;99.90
46732;DHT22;32477;51.474;5.696;2023-12-20T06:26:39;6.70;99.90
46732;DHT22;32477;51.474;5.696;2023-12-20T06:29:05;6.70;99.90
46732;DHT22;32477;51.474;5.696;2023-12-20T06:31:31;6.70;99.90
46732;DHT22;32477;51.474;5.696;2023-12-20T06:33:58;6.70;99.90
46732;DHT22;32477;51.474;5.696;2023-12-20T06:36:25;6.70;99.90
46732;DHT22;32477;51.474;5.696;2023-12-20T06:38:51;6.80;99.90
46732;DHT22;32477;51.474;5.696;2023-12-20T06:41:17;6.70;99.90
46732;DHT22;32477;51.474;5.696;2023-12-20T06:43:42;6.70;99.90
46732;DHT22;32477;51.474;5.696;2023-12-20T06:46:08;6.60;99.90
46732;DHT22;32477;51.474;5.696;2023-12-20T06:48:34;6.60;99.90
46732;DHT22;32477;51.474;5.696;2023-12-20T06:51:01;6.60;99.90
46732;DHT22;32477;51.474;5.696;2023-12-20T06:53:29;6.50;99.90
46732;DHT22;32477;51.474;5.696;2023-12-20T06:55:55;6.40;99.90
46732;DHT22;32477;51.474;5.696;2023-12-20T06:58:24;6.40;99.90
46732;DHT22;32477;51.474;5.696;2023-12-20T07:00:50;6.30;99.90
46732;DHT22;32477;51.474;5.696;2023-12-20T07:03:17;6.40;99.90
46732;DHT22;32477;51.474;5.696;2023-12-20T07:05:43;6.40;99.90
46732;DHT22;32477;51.474;5.696;2023-12-20T07:08:09;6.40;99.90
46732;DHT22;32477;51.474;5.696;2023-12-20T07:10:34;6.40;99.90
46732;DHT22;32477;51.474;5.696;2023-12-20T07:13:00;6.40;99.90
46732;DHT22;32477;51.474;5.696;2023-12-20T07:15:25;6.50;99.90
46732;DHT22;32477;51.474;5.696;2023-12-20T07:17:52;6.50;99.90
46732;DHT22;32477;51.474;5.696;2023-12-20T07:20:18;6.40;99.90
46732;DHT22;32477;51.474;5.696;2023-12-20T07:22:44;6.40;99.90
46732;DHT22;32477;51.474;5.696;2023-12-20T07:25:09;6.40;99.90
46732;DHT22;32477;51.474;5.696;2023-12-20T07:27:36;6.40;99.90
46732;DHT22;32477;51.474;5.696;2023-12-20T07:30:01;6.40;99.90
46732;DHT22;32477;51.474;5.696;2023-12-20T07:32:27;6.50;99.90
46732;DHT22;32477;51.474;5.696;2023-12-20T07:34:53;6.40;99.90
46732;DHT22;32477;51.474;5.696;2023-12-20T07:37:20;6.40;99.90
46732;DHT22;32477;51.474;5.696;2023-12-20T07:39:46;6.50;99.90
46732;DHT22;32477;51.474;5.696;2023-12-20T07:42:11;6.50;99.90
46732;DHT22;32477;51.474;5.696;2023-12-20T07:44:37;6.50;99.90
46732;DHT22;32477;51.474;5.696;2023-12-20T07:47:03;6.50;99.90
46732;DHT22;32477;51.474;5.696;2023-12-20T07:49:29;6.50;99.90
46732;DHT22;32477;51.474;5.696;2023-12-20T07:51:55;6.50;99.90
46732;DHT22;32477;51.474;5.696;2023-12-20T07:54:21;6.60;99.90
46732;DHT22;32477;51.474;5.696;2023-12-20T07:56:46;6.60;99.90
46732;DHT22;32477;51.474;5.696;2023-12-20T07:59:12;6.60;99.90
46732;DHT22;32477;51.474;5.696;2023-12-20T08:01:38;6.70;99.90
46732;DHT22;32477;51.474;5.696;2023-12-20T08:04:03;6.60;99.90
46732;DHT22;32477;51.474;5.696;2023-12-20T08:06:29;6.70;99.90
46732;DHT22;32477;51.474;5.696;2023-12-20T08:08:55;6.70;99.90
46732;DHT22;32477;51.474;5.696;2023-12-20T08:11:20;6.70;99.90
46732;DHT22;32477;51.474;5.696;2023-12-20T08:13:46;6.70;99.90
46732;DHT22;32477;51.474;5.696;2023-12-20T08:16:12;6.70;99.90
46732;DHT22;32477;51.474;5.696;2023-12-20T08:18:39;6.70;99.90
46732;DHT22;32477;51.474;5.696;2023-12-20T08:21:04;6.70;99.90
46732;DHT22;32477;51.474;5.696;2023-12-20T08:23:33;6.80;99.90
46732;DHT22;32477;51.474;5.696;2023-12-20T08:25:58;6.80;99.90
46732;DHT22;32477;51.474;5.696;2023-12-20T08:28:28;6.90;99.90
46732;DHT22;32477;51.474;5.696;2023-12-20T08:30:54;7.00;99.90
46732;DHT22;32477;51.474;5.696;2023-12-20T08:33:20;7.00;99.90
46732;DHT22;32477;51.474;5.696;2023-12-20T08:35:45;7.00;99.90
46732;DHT22;32477;51.474;5.696;2023-12-20T08:38:11;7.00;99.90
46732;DHT22;32477;51.474;5.696;2023-12-20T08:40:37;7.10;99.90
46732;DHT22;32477;51.474;5.696;2023-12-20T08:43:03;7.10;99.90
46732;DHT22;32477;51.474;5.696;2023-12-20T08:45:29;7.10;99.90
46732;DHT22;32477;51.474;5.696;2023-12-20T08:47:54;7.10;99.90
46732;DHT22;32477;51.474;5.696;2023-12-20T08:50:20;7.10;99.90
46732;DHT22;32477;51.474;5.696;2023-12-20T08:52:45;7.10;99.90
46732;DHT22;32477;51.474;5.696;2023-12-20T08:55:11;7.10;99.90
46732;DHT22;32477;51.474;5.696;2023-12-20T08:57:38;7.10;99.90
46732;DHT22;32477;51.474;5.696;2023-12-20T09:00:04;7.10;99.90
46732;DHT22;32477;51.474;5.696;2023-12-20T09:02:30;7.00;99.90
46732;DHT22;32477;51.474;5.696;2023-12-20T09:04:55;7.10;99.90
46732;DHT22;32477;51.474;5.696;2023-12-20T09:07:25;7.10;99.90
46732;DHT22;32477;51.474;5.696;2023-12-20T09:09:52;7.20;99.90
46732;DHT22;32477;51.474;5.696;2023-12-20T09:12:19;7.20;99.90
46732;DHT22;32477;51.474;5.696;2023-12-20T09:14:49;7.20;99.90
46732;DHT22;32477;51.474;5.696;2023-12-20T09:17:16;7.20;99.90
46732;DHT22;32477;51.474;5.696;2023-12-20T09:19:42;7.20;99.90
46732;DHT22;32477;51.474;5.696;2023-12-20T09:22:12;7.20;99.90
46732;DHT22;32477;51.474;5.696;2023-12-20T09:24:37;7.10;99.90
46732;DHT22;32477;51.474;5.696;2023-12-20T09:27:05;7.10;99.90
46732;DHT22;32477;51.474;5.696;2023-12-20T09:29:31;7.20;99.90
46732;DHT22;32477;51.474;5.696;2023-12-20T09:31:56;7.10;99.90
46732;DHT22;32477;51.474;5.696;2023-12-20T09:34:23;7.20;99.90
46732;DHT22;32477;51.474;5.696;2023-12-20T09:36:48;7.20;99.90
46732;DHT22;32477;51.474;5.696;2023-12-20T09:39:15;7.10;99.90
46732;DHT22;32477;51.474;5.696;2023-12-20T09:41:45;7.20;99.90
46732;DHT22;32477;51.474;5.696;2023-12-20T09:44:16;7.10;99.90
46732;DHT22;32477;51.474;5.696;2023-12-20T09:46:45;7.20;99.90
46732;DHT22;32477;51.474;5.696;2023-12-20T09:49:13;7.20;99.90
46732;DHT22;32477;51.474;5.696;2023-12-20T09:51:39;7.20;99.90
46732;DHT22;32477;51.474;5.696;2023-12-20T09:54:06;7.30;99.90
46732;DHT22;32477;51.474;5.696;2023-12-20T09:56:31;7.40;99.90
46732;DHT22;32477;51.474;5.696;2023-12-20T09:58:57;7.40;99.90
46732;DHT22;32477;51.474;5.696;2023-12-20T10:01:23;7.50;99.90
46732;DHT22;32477;51.474;5.696;2023-12-20T10:03:51;7.50;99.90
46732;DHT22;32477;51.474;5.696;2023-12-20T10:06:19;7.50;99.90
46732;DHT22;32477;51.474;5.696;2023-12-20T10:08:45;7.50;99.90
46732;DHT22;32477;51.474;5.696;2023-12-20T10:11:11;7.50;99.90
46732;DHT22;32477;51.474;5.696;2023-12-20T10:13:40;7.60;99.90
46732;DHT22;32477;51.474;5.696;2023-12-20T10:16:07;7.60;99.90
46732;DHT22;32477;51.474;5.696;2023-12-20T10:18:35;7.60;99.90
46732;DHT22;32477;51.474;5.696;2023-12-20T10:21:01;7.60;99.90
46732;DHT22;32477;51.474;5.696;2023-12-20T10:23:28;7.50;99.90
46732;DHT22;32477;51.474;5.696;2023-12-20T10:26:00;7.50;99.90
46732;DHT22;32477;51.474;5.696;2023-12-20T10:28:26;7.50;99.90
46732;DHT22;32477;51.474;5.696;2023-12-20T10:30:55;7.50;99.90
46732;DHT22;32477;51.474;5.696;2023-12-20T10:33:30;7.60;99.90
46732;DHT22;32477;51.474;5.696;2023-12-20T10:35:57;7.70;99.90
46732;DHT22;32477;51.474;5.696;2023-12-20T10:38:23;7.60;99.90
46732;DHT22;32477;51.474;5.696;2023-12-20T10:40:54;7.60;99.90
46732;DHT22;32477;51.474;5.696;2023-12-20T10:43:21;7.60;99.90
46732;DHT22;32477;51.474;5.696;2023-12-20T10:45:47;7.60;99.90
46732;DHT22;32477;51.474;5.696;2023-12-20T10:48:13;7.60;99.90
46732;DHT22;32477;51.474;5.696;2023-12-20T10:50:39;7.60;99.90
46732;DHT22;32477;51.474;5.696;2023-12-20T10:53:06;7.60;99.90
46732;DHT22;32477;51.474;5.696;2023-12-20T10:55:33;7.70;99.90
46732;DHT22;32477;51.474;5.696;2023-12-20T10:58:08;7.60;99.90
46732;DHT22;32477;51.474;5.696;2023-12-20T11:00:35;7.70;99.90
46732;DHT22;32477;51.474;5.696;2023-12-20T11:03:04;7.70;99.90
46732;DHT22;32477;51.474;5.696;2023-12-20T11:05:50;7.60;99.90
46732;DHT22;32477;51.474;5.696;2023-12-20T11:08:33;7.60;99.90
46732;DHT22;32477;51.474;5.696;2023-12-20T11:11:13;7.60;99.90
46732;DHT22;32477;51.474;5.696;2023-12-20T11:14:04;7.60;99.90
46732;DHT22;32477;51.474;5.696;2023-12-20T11:16:39;7.60;99.90
46732;DHT22;32477;51.474;5.696;2023-12-20T11:19:06;7.60;99.90
46732;DHT22;32477;51.474;5.696;2023-12-20T11:21:32;7.60;99.90
46732;DHT22;32477;51.474;5.696;2023-12-20T11:23:59;7.60;99.90
46732;DHT22;32477;51.474;5.696;2023-12-20T11:26:28;7.60;99.90
46732;DHT22;32477;51.474;5.696;2023-12-20T11:29:12;7.70;99.90
46732;DHT22;32477;51.474;5.696;2023-12-20T11:31:40;7.70;99.90
46732;DHT22;32477;51.474;5.696;2023-12-20T11:34:14;7.80;99.90
46732;DHT22;32477;51.474;5.696;2023-12-20T11:36:42;7.70;99.90
46732;DHT22;32477;51.474;5.696;2023-12-20T11:39:08;7.70;99.90
46732;DHT22;32477;51.474;5.696;2023-12-20T11:41:34;7.70;99.90
46732;DHT22;32477;51.474;5.696;2023-12-20T11:44:00;7.70;99.90
46732;DHT22;32477;51.474;5.696;2023-12-20T11:46:26;7.60;99.90
46732;DHT22;32477;51.474;5.696;2023-12-20T11:48:52;7.60;99.90
46732;DHT22;32477;51.474;5.696;2023-12-20T11:51:17;7.50;99.90
46732;DHT22;32477;51.474;5.696;2023-12-20T11:53:43;7.50;99.90
46732;DHT22;32477;51.474;5.696;2023-12-20T11:56:09;7.40;99.90
46732;DHT22;32477;51.474;5.696;2023-12-20T11:58:36;7.40;99.90
46732;DHT22;32477;51.474;5.696;2023-12-20T12:01:02;7.40;99.90
46732;DHT22;32477;51.474;5.696;2023-12-20T12:03:28;7.40;99.90
46732;DHT22;32477;51.474;5.696;2023-12-20T12:05:53;7.40;99.90
46732;DHT22;32477;51.474;5.696;2023-12-20T12:08:19;7.40;99.90
46732;DHT22;32477;51.474;5.696;2023-12-20T12:10:45;7.40;99.90
46732;DHT22;32477;51.474;5.696;2023-12-20T12:13:10;7.30;99.90
46732;DHT22;32477;51.474;5.696;2023-12-20T12:15:37;7.30;99.90
46732;DHT22;32477;51.474;5.696;2023-12-20T12:18:03;7.30;99.90
46732;DHT22;32477;51.474;5.696;2023-12-20T12:20:30;7.30;99.90
46732;DHT22;32477;51.474;5.696;2023-12-20T12:23:00;7.20;99.90
46732;DHT22;32477;51.474;5.696;2023-12-20T12:25:26;7.20;99.90
46732;DHT22;32477;51.474;5.696;2023-12-20T12:27:53;7.30;99.90
46732;DHT22;32477;51.474;5.696;2023-12-20T12:30:19;7.30;99.90
46732;DHT22;32477;51.474;5.696;2023-12-20T12:32:45;7.30;99.90
46732;DHT22;32477;51.474;5.696;2023-12-20T12:35:11;7.30;99.90
46732;DHT22;32477;51.474;5.696;2023-12-20T12:37:40;7.30;99.90
46732;DHT22;32477;51.474;5.696;2023-12-20T12:40:10;7.20;99.90
46732;DHT22;32477;51.474;5.696;2023-12-20T12:42:37;7.20;99.90
46732;DHT22;32477;51.474;5.696;2023-12-20T12:45:03;7.30;99.90
46732;DHT22;32477;51.474;5.696;2023-12-20T12:47:30;7.30;99.90
46732;DHT22;32477;51.474;5.696;2023-12-20T12:49:56;7.40;99.90
46732;DHT22;32477;51.474;5.696;2023-12-20T12:52:22;7.40;99.90
46732;DHT22;32477;51.474;5.696;2023-12-20T12:54:48;7.40;99.90
46732;DHT22;32477;51.474;5.696;2023-12-20T12:57:14;7.50;99.90
46732;DHT22;32477;51.474;5.696;2023-12-20T12:59:42;7.50;99.90
46732;DHT22;32477;51.474;5.696;2023-12-20T13:02:07;7.60;99.90
46732;DHT22;32477;51.474;5.696;2023-12-20T13:04:33;7.60;99.90
46732;DHT22;32477;51.474;5.696;2023-12-20T13:06:59;7.60;99.90
46732;DHT22;32477;51.474;5.696;2023-12-20T13:09:25;7.60;99.90
46732;DHT22;32477;51.474;5.696;2023-12-20T13:11:51;7.60;99.90
46732;DHT22;32477;51.474;5.696;2023-12-20T13:14:16;7.70;99.90
46732;DHT22;32477;51.474;5.696;2023-12-20T13:16:42;7.70;99.90
46732;DHT22;32477;51.474;5.696;2023-12-20T13:19:08;7.80;99.90
46732;DHT22;32477;51.474;5.696;2023-12-20T13:21:35;7.90;99.90
46732;DHT22;32477;51.474;5.696;2023-12-20T13:24:01;7.90;99.90
46732;DHT22;32477;51.474;5.696;2023-12-20T13:26:26;8.00;99.90
46732;DHT22;32477;51.474;5.696;2023-12-20T13:28:53;8.10;99.90
46732;DHT22;32477;51.474;5.696;2023-12-20T13:31:20;8.20;99.90
46732;DHT22;32477;51.474;5.696;2023-12-20T13:33:45;8.20;99.90
46732;DHT22;32477;51.474;5.696;2023-12-20T13:36:11;8.20;99.90
46732;DHT22;32477;51.474;5.696;2023-12-20T13:38:37;8.30;99.90
46732;DHT22;32477;51.474;5.696;2023-12-20T13:41:03;8.20;99.90
46732;DHT22;32477;51.474;5.696;2023-12-20T13:43:31;8.10;99.90
46732;DHT22;32477;51.474;5.696;2023-12-20T13:46:00;8.10;99.90
46732;DHT22;32477;51.474;5.696;2023-12-20T13:48:26;8.20;99.90
46732;DHT22;32477;51.474;5.696;2023-12-20T13:50:52;8.20;99.90
46732;DHT22;32477;51.474;5.696;2023-12-20T13:53:17;8.20;99.90
46732;DHT22;32477;51.474;5.696;2023-12-20T13:55:44;8.20;99.90
46732;DHT22;32477;51.474;5.696;2023-12-20T13:58:10;8.10;99.90
46732;DHT22;32477;51.474;5.696;2023-12-20T14:00:36;8.10;99.90
46732;DHT22;32477;51.474;5.696;2023-12-20T14:03:03;8.10;99.90
46732;DHT22;32477;51.474;5.696;2023-12-20T14:05:29;8.10;99.90
46732;DHT22;32477;51.474;5.696;2023-12-20T14:07:55;8.10;99.90
46732;DHT22;32477;51.474;5.696;2023-12-20T14:10:23;8.10;99.90
46732;DHT22;32477;51.474;5.696;2023-12-20T14:12:50;8.10;99.90
46732;DHT22;32477;51.474;5.696;2023-12-20T14:15:15;8.10;99.90
46732;DHT22;32477;51.474;5.696;2023-12-20T14:17:41;8.20;99.90
46732;DHT22;32477;51.474;5.696;2023-12-20T14:20:10;8.20;99.90
46732;DHT22;32477;51.474;5.696;2023-12-20T14:22:38;8.20;99.90
46732;DHT22;32477;51.474;5.696;2023-12-20T14:25:04;8.10;99.90
46732;DHT22;32477;51.474;5.696;2023-12-20T14:27:31;8.20;99.90
46732;DHT22;32477;51.474;5.696;2023-12-20T14:29:57;8.20;99.90
46732;DHT22;32477;51.474;5.696;2023-12-20T14:32:24;8.10;99.90
46732;DHT22;32477;51.474;5.696;2023-12-20T14:34:52;8.10;99.90
46732;DHT22;32477;51.474;5.696;2023-12-20T14:37:17;8.10;99.90
46732;DHT22;32477;51.474;5.696;2023-12-20T14:39:43;8.10;99.90
46732;DHT22;32477;51.474;5.696;2023-12-20T14:42:09;8.10;99.90
46732;DHT22;32477;51.474;5.696;2023-12-20T14:44:42;8.10;99.90
46732;DHT22;32477;51.474;5.696;2023-12-20T14:47:08;8.10;99.90
46732;DHT22;32477;51.474;5.696;2023-12-20T14:49:34;8.10;99.90
46732;DHT22;32477;51.474;5.696;2023-12-20T14:52:01;8.10;99.90
46732;DHT22;32477;51.474;5.696;2023-12-20T14:54:26;8.00;99.90
46732;DHT22;32477;51.474;5.696;2023-12-20T14:56:52;7.90;99.90
46732;DHT22;32477;51.474;5.696;2023-12-20T14:59:17;8.00;99.90
46732;DHT22;32477;51.474;5.696;2023-12-20T15:01:44;8.00;99.90
46732;DHT22;32477;51.474;5.696;2023-12-20T15:04:10;8.00;99.90
46732;DHT22;32477;51.474;5.696;2023-12-20T15:06:36;8.00;99.90
46732;DHT22;32477;51.474;5.696;2023-12-20T15:09:02;8.00;99.90
46732;DHT22;32477;51.474;5.696;2023-12-20T15:11:30;8.00;99.90
46732;DHT22;32477;51.474;5.696;2023-12-20T15:13:56;8.00;99.90
46732;DHT22;32477;51.474;5.696;2023-12-20T15:16:22;8.00;99.90
46732;DHT22;32477;51.474;5.696;2023-12-20T15:18:49;8.00;99.90
46732;DHT22;32477;51.474;5.696;2023-12-20T15:21:15;8.00;99.90
46732;DHT22;32477;51.474;5.696;2023-12-20T15:23:41;8.00;99.90
46732;DHT22;32477;51.474;5.696;2023-12-20T15:26:20;8.00;99.90
46732;DHT22;32477;51.474;5.696;2023-12-20T15:28:46;8.00;99.90
46732;DHT22;32477;51.474;5.696;2023-12-20T15:31:12;8.00;99.90
46732;DHT22;32477;51.474;5.696;2023-12-20T15:33:38;8.10;99.90
46732;DHT22;32477;51.474;5.696;2023-12-20T15:36:04;8.00;99.90
46732;DHT22;32477;51.474;5.696;2023-12-20T15:38:30;8.10;99.90